Back to Top

Language: 

My Weather Underground Personal Weather Station Historical Data with Graphs...

Delerius Weather Station Historical Data
Daily Summary for September 13, 2017 Units:  English    Metric   Both
« Previous Day
Next Day »
Daily Weekly Monthly Yearly Custom
  High: Low: Average:
Temperature: 59.4 °F 47.3 °F 53.8 °F
Dew Point: 53.2 °F 44.1 °F 48 °F
Humidity: 96 % 64 % 81 %
Wind Speed: 26.0 mph 1.0 mph 12.2 mph
Wind Gust: 45.0 mph - -
Wind:- - West
Pressure: 29.50 in 29.01 in -
Precipitation: 0.02 in    
Historical Graphs
 
 
Tabular Data for September 13, 2017
Time Temperature Dew Point Pressure Wind Wind Speed Wind Gust Humidity Rainfall Rate (Hourly) solar Conditions
00:00 52.3 °F 51.2 °F 29.14 in South 8.0 mph 20.0 mph 96 % 0.00 in 0 W/m2
00:05 52.5 °F 51.4 °F 29.13 in South 9.0 mph 20.0 mph 96 % 0.00 in 0 W/m2
00:10 52.7 °F 51.6 °F 29.13 in South 8.0 mph 16.0 mph 96 % 0.00 in 0 W/m2
00:15 52.9 °F 51.8 °F 29.12 in South 9.0 mph 16.0 mph 96 % 0.00 in 0 W/m2
00:20 53.1 °F 52.0 °F 29.11 in South 9.0 mph 16.0 mph 96 % 0.00 in 0 W/m2
00:25 53.2 °F 51.8 °F 29.11 in South 8.0 mph 19.0 mph 95 % 0.00 in 0 W/m2
00:30 53.4 °F 52.0 °F 29.10 in South 9.0 mph 20.0 mph 95 % 0.00 in 0 W/m2
00:35 53.4 °F 52.0 °F 29.10 in South 10.0 mph 20.0 mph 95 % 0.00 in 0 W/m2
00:39 53.8 °F 52.4 °F 29.10 in South 9.0 mph 18.0 mph 95 % 0.00 in 0 W/m2
00:44 53.8 °F 52.4 °F 29.09 in SSW 8.0 mph 14.0 mph 95 % 0.00 in 0 W/m2
00:49 54.0 °F 52.6 °F 29.08 in SSW 8.0 mph 16.0 mph 95 % 0.00 in 0 W/m2
00:54 54.1 °F 52.7 °F 29.08 in SSW 9.0 mph 16.0 mph 95 % 0.00 in 0 W/m2
00:59 54.3 °F 52.9 °F 29.07 in SSW 10.0 mph 18.0 mph 95 % 0.00 in 0 W/m2
01:04 54.7 °F 53.0 °F 29.07 in SW 12.0 mph 23.0 mph 94 % 0.00 in 0 W/m2
01:09 54.9 °F 53.2 °F 29.06 in SW 12.0 mph 25.0 mph 94 % 0.00 in 0 W/m2
01:14 55.2 °F 52.9 °F 29.07 in SW 12.0 mph 25.0 mph 92 % 0.00 in 0 W/m2
01:19 55.2 °F 52.9 °F 29.06 in SW 12.0 mph 21.0 mph 92 % 0.00 in 0 W/m2
01:24 55.2 °F 52.6 °F 29.06 in SW 12.0 mph 22.0 mph 91 % 0.00 in 0 W/m2
01:29 55.4 °F 52.5 °F 29.05 in SW 13.0 mph 22.0 mph 90 % 0.00 in 0 W/m2
01:34 55.4 °F 52.5 °F 29.05 in SW 11.0 mph 22.0 mph 90 % 0.00 in 0 W/m2
01:39 55.4 °F 52.2 °F 29.05 in SW 11.0 mph 20.0 mph 89 % 0.00 in 0 W/m2
01:44 55.6 °F 52.4 °F 29.04 in SW 13.0 mph 22.0 mph 89 % 0.00 in 0 W/m2
01:49 55.6 °F 52.1 °F 29.05 in SW 12.0 mph 23.0 mph 88 % 0.00 in 0 W/m2
01:54 55.6 °F 52.1 °F 29.05 in SW 11.0 mph 23.0 mph 88 % 0.00 in 0 W/m2
01:59 55.6 °F 52.1 °F 29.04 in SW 10.0 mph 19.0 mph 88 % 0.00 in 0 W/m2
02:04 55.4 °F 51.9 °F 29.04 in SW 9.0 mph 19.0 mph 88 % 0.00 in 0 W/m2
02:09 55.4 °F 51.9 °F 29.03 in SW 8.0 mph 14.0 mph 88 % 0.00 in 0 W/m2
02:14 55.2 °F 51.7 °F 29.03 in SW 8.0 mph 14.0 mph 88 % 0.00 in 0 W/m2
02:19 55.4 °F 51.9 °F 29.03 in SW 7.0 mph 14.0 mph 88 % 0.00 in 0 W/m2
02:24 55.6 °F 52.1 °F 29.03 in SW 9.0 mph 19.0 mph 88 % 0.00 in 0 W/m2
02:29 55.6 °F 51.8 °F 29.03 in SW 9.0 mph 19.0 mph 87 % 0.00 in 0 W/m2
02:34 55.8 °F 51.9 °F 29.03 in SW 8.0 mph 18.0 mph 87 % 0.00 in 0 W/m2
02:39 55.9 °F 52.1 °F 29.03 in SW 10.0 mph 21.0 mph 87 % 0.00 in 0 W/m2
02:44 56.1 °F 52.0 °F 29.02 in SW 10.0 mph 21.0 mph 86 % 0.00 in 0 W/m2
02:49 56.1 °F 52.3 °F 29.02 in SW 9.0 mph 20.0 mph 87 % 0.00 in 0 W/m2
02:50 56.1 °F 52.3 °F 29.02 in SW 9.0 mph 20.0 mph 87 % 0.00 in 0 W/m2
02:55 56.3 °F 52.5 °F 29.02 in SW 11.0 mph 22.0 mph 87 % 0.00 in 0 W/m2
02:57 56.3 °F 52.5 °F 29.02 in SW 12.0 mph 22.0 mph 87 % 0.00 in 0 W/m2
03:02 56.1 °F 52.6 °F 29.02 in WSW 12.0 mph 22.0 mph 88 % 0.00 in 0 W/m2
03:07 56.1 °F 52.6 °F 29.01 in SW 12.0 mph 22.0 mph 88 % 0.00 in 0 W/m2
03:12 56.1 °F 52.6 °F 29.02 in WSW 12.0 mph 22.0 mph 88 % 0.00 in 0 W/m2
03:17 56.1 °F 52.6 °F 29.02 in WSW 12.0 mph 24.0 mph 88 % 0.00 in 0 W/m2
03:22 56.3 °F 52.8 °F 29.02 in WSW 14.0 mph 32.0 mph 88 % 0.00 in 0 W/m2
03:27 56.3 °F 52.8 °F 29.01 in WSW 14.0 mph 32.0 mph 88 % 0.00 in 0 W/m2
03:32 55.9 °F 52.1 °F 29.02 in West 16.0 mph 37.0 mph 87 % 0.00 in 0 W/m2
03:37 55.4 °F 51.0 °F 29.03 in West 23.0 mph 41.0 mph 85 % 0.00 in 0 W/m2
03:42 54.7 °F 49.9 °F 29.05 in WNW 26.0 mph 44.0 mph 84 % 0.00 in 0 W/m2
03:47 54.0 °F 49.6 °F 29.05 in WNW 25.0 mph 44.0 mph 85 % 0.00 in 0 W/m2
03:52 53.4 °F 49.0 °F 29.06 in WNW 25.0 mph 42.0 mph 85 % 0.01 in 0 W/m2
03:57 52.9 °F 48.8 °F 29.07 in WNW 26.0 mph 45.0 mph 86 % 0.01 in 0 W/m2
04:02 52.3 °F 48.6 °F 29.08 in West 26.0 mph 45.0 mph 87 % 0.01 in 0 W/m2
04:07 52.2 °F 48.4 °F 29.08 in West 23.0 mph 40.0 mph 87 % 0.01 in 0 W/m2
04:13 52.2 °F 48.4 °F 29.09 in WNW 23.0 mph 42.0 mph 87 % 0.01 in 0 W/m2
04:18 52.0 °F 48.2 °F 29.10 in WNW 23.0 mph 42.0 mph 87 % 0.01 in 0 W/m2
04:20 52.0 °F 48.2 °F 29.10 in WNW 22.0 mph 38.0 mph 87 % 0.01 in 0 W/m2
04:25 52.0 °F 48.2 °F 29.12 in WNW 23.0 mph 36.0 mph 87 % 0.01 in 0 W/m2
04:28 52.0 °F 48.2 °F 29.12 in WNW 23.0 mph 38.0 mph 87 % 0.01 in 0 W/m2
04:33 52.0 °F 48.2 °F 29.13 in WNW 21.0 mph 38.0 mph 87 % 0.01 in 0 W/m2
04:38 52.0 °F 48.2 °F 29.13 in WNW 19.0 mph 34.0 mph 87 % 0.01 in 0 W/m2
04:43 52.0 °F 47.9 °F 29.14 in WNW 21.0 mph 36.0 mph 86 % 0.01 in 0 W/m2
04:48 52.0 °F 47.9 °F 29.15 in WNW 22.0 mph 36.0 mph 86 % 0.01 in 0 W/m2
04:49 52.0 °F 47.9 °F 29.15 in WNW 22.0 mph 36.0 mph 86 % 0.01 in 0 W/m2
04:54 52.0 °F 47.6 °F 29.15 in WNW 21.0 mph 33.0 mph 85 % 0.00 in 0 W/m2
04:59 52.0 °F 47.6 °F 29.15 in WNW 20.0 mph 35.0 mph 85 % 0.00 in 0 W/m2
05:04 51.6 °F 46.9 °F 29.16 in WNW 20.0 mph 39.0 mph 84 % 0.00 in 0 W/m2
05:09 51.6 °F 46.6 °F 29.16 in WNW 20.0 mph 39.0 mph 83 % 0.00 in 0 W/m2
05:14 51.4 °F 46.4 °F 29.17 in WNW 22.0 mph 38.0 mph 83 % 0.00 in 0 W/m2
05:19 51.4 °F 46.4 °F 29.18 in WNW 21.0 mph 38.0 mph 83 % 0.00 in 0 W/m2
05:24 51.3 °F 46.3 °F 29.18 in WNW 19.0 mph 35.0 mph 83 % 0.00 in 0 W/m2
05:29 51.1 °F 46.1 °F 29.19 in WNW 21.0 mph 35.0 mph 83 % 0.00 in 0 W/m2
05:34 51.1 °F 46.4 °F 29.20 in WNW 21.0 mph 33.0 mph 84 % 0.00 in 0 W/m2
05:39 50.7 °F 46.4 °F 29.20 in WNW 21.0 mph 38.0 mph 85 % 0.00 in 0 W/m2
05:44 50.4 °F 46.0 °F 29.21 in WNW 20.0 mph 38.0 mph 85 % 0.00 in 0 W/m2
05:49 50.2 °F 46.2 °F 29.21 in WNW 19.0 mph 32.0 mph 86 % 0.00 in 0 W/m2
05:54 50.2 °F 46.2 °F 29.21 in WNW 18.0 mph 29.0 mph 86 % 0.00 in 0 W/m2
05:59 50.0 °F 45.7 °F 29.21 in WNW 17.0 mph 30.0 mph 85 % 0.00 in 0 W/m2
06:04 50.0 °F 45.7 °F 29.22 in WNW 18.0 mph 30.0 mph 85 % 0.00 in 0 W/m2
06:09 50.0 °F 45.7 °F 29.23 in WNW 19.0 mph 30.0 mph 85 % 0.00 in 0 W/m2
06:10 50.0 °F 45.7 °F 29.23 in WNW 19.0 mph 30.0 mph 85 % 0.00 in 0 W/m2
06:15 50.0 °F 45.7 °F 29.23 in WNW 17.0 mph 30.0 mph 85 % 0.00 in 0 W/m2
06:20 50.0 °F 45.7 °F 29.23 in WNW 16.0 mph 31.0 mph 85 % 0.00 in 0 W/m2
06:25 50.2 °F 45.8 °F 29.24 in WNW 15.0 mph 31.0 mph 85 % 0.00 in 0 W/m2
06:30 50.2 °F 45.8 °F 29.24 in WNW 14.0 mph 24.0 mph 85 % 0.00 in 0 W/m2
06:35 50.2 °F 46.2 °F 29.25 in WNW 15.0 mph 27.0 mph 86 % 0.00 in 5 W/m2
06:40 50.2 °F 45.8 °F 29.25 in WNW 16.0 mph 27.0 mph 85 % 0.00 in 7 W/m2
06:45 50.4 °F 46.3 °F 29.26 in WNW 17.0 mph 28.0 mph 86 % 0.00 in 7 W/m2
06:50 50.4 °F 46.3 °F 29.26 in WNW 16.0 mph 28.0 mph 86 % 0.00 in 9 W/m2
06:55 50.4 °F 46.3 °F 29.26 in WNW 17.0 mph 29.0 mph 86 % 0.00 in 16 W/m2
07:00 50.2 °F 46.2 °F 29.27 in WNW 18.0 mph 29.0 mph 86 % 0.00 in 16 W/m2
07:05 50.4 °F 46.3 °F 29.27 in WNW 19.0 mph 35.0 mph 86 % 0.00 in 23 W/m2
07:10 50.4 °F 46.3 °F 29.27 in WNW 19.0 mph 35.0 mph 86 % 0.00 in 21 W/m2
07:15 50.4 °F 46.3 °F 29.28 in WNW 18.0 mph 31.0 mph 86 % 0.00 in 25 W/m2
07:20 50.4 °F 46.3 °F 29.28 in WNW 17.0 mph 28.0 mph 86 % 0.00 in 23 W/m2
07:25 50.4 °F 46.3 °F 29.28 in WNW 16.0 mph 28.0 mph 86 % 0.00 in 30 W/m2
07:30 50.5 °F 46.2 °F 29.28 in WNW 16.0 mph 30.0 mph 85 % 0.00 in 32 W/m2
07:35 50.5 °F 46.2 °F 29.29 in WNW 16.0 mph 30.0 mph 85 % 0.00 in 70 W/m2
07:40 50.9 °F 46.6 °F 29.29 in WNW 16.0 mph 29.0 mph 85 % 0.00 in 28 W/m2
07:46 51.1 °F 46.7 °F 29.30 in WNW 16.0 mph 28.0 mph 85 % 0.00 in 51 W/m2
07:51 51.1 °F 46.7 °F 29.30 in WNW 16.0 mph 27.0 mph 85 % 0.00 in 47 W/m2
07:56 51.4 °F 46.8 °F 29.30 in WNW 17.0 mph 28.0 mph 84 % 0.00 in 141 W/m2
08:01 51.6 °F 46.9 °F 29.29 in WNW 16.0 mph 28.0 mph 84 % 0.00 in 257 W/m2
08:06 52.2 °F 47.5 °F 29.29 in WNW 14.0 mph 25.0 mph 84 % 0.00 in 74 W/m2
08:11 52.2 °F 47.2 °F 29.30 in WNW 15.0 mph 27.0 mph 83 % 0.00 in 44 W/m2
08:16 52.3 °F 47.3 °F 29.30 in WNW 17.0 mph 28.0 mph 83 % 0.00 in 223 W/m2
08:21 52.7 °F 47.4 °F 29.30 in WNW 17.0 mph 28.0 mph 82 % 0.00 in 237 W/m2
08:26 53.1 °F 47.4 °F 29.30 in WNW 19.0 mph 35.0 mph 81 % 0.00 in 257 W/m2
08:31 53.2 °F 47.2 °F 29.31 in WNW 20.0 mph 35.0 mph 80 % 0.00 in 264 W/m2
08:36 53.6 °F 47.2 °F 29.31 in West 19.0 mph 33.0 mph 79 % 0.00 in 271 W/m2
08:41 53.8 °F 47.4 °F 29.31 in WNW 18.0 mph 33.0 mph 79 % 0.00 in 288 W/m2
08:46 54.0 °F 47.6 °F 29.31 in WNW 19.0 mph 32.0 mph 79 % 0.00 in 304 W/m2
08:51 54.1 °F 47.4 °F 29.31 in WNW 20.0 mph 32.0 mph 78 % 0.00 in 318 W/m2
08:56 54.3 °F 47.6 °F 29.32 in WNW 20.0 mph 30.0 mph 78 % 0.00 in 332 W/m2
09:01 54.5 °F 47.4 °F 29.32 in WNW 20.0 mph 30.0 mph 77 % 0.00 in 343 W/m2
09:06 54.5 °F 47.4 °F 29.33 in WNW 21.0 mph 38.0 mph 77 % 0.00 in 454 W/m2
09:11 54.5 °F 47.8 °F 29.33 in WNW 20.0 mph 38.0 mph 78 % 0.00 in 408 W/m2
09:16 54.1 °F 47.4 °F 29.34 in WNW 21.0 mph 35.0 mph 78 % 0.00 in 91 W/m2
09:21 53.8 °F 47.4 °F 29.34 in West 19.0 mph 38.0 mph 79 % 0.00 in 144 W/m2
09:26 53.4 °F 47.4 °F 29.35 in West 18.0 mph 38.0 mph 80 % 0.00 in 127 W/m2
09:31 53.2 °F 47.2 °F 29.35 in WNW 17.0 mph 34.0 mph 80 % 0.00 in 181 W/m2
09:36 53.4 °F 47.7 °F 29.35 in WNW 15.0 mph 29.0 mph 81 % 0.00 in 90 W/m2
09:41 54.0 °F 48.3 °F 29.35 in WNW 12.0 mph 21.0 mph 81 % 0.00 in 462 W/m2
09:46 54.7 °F 48.6 °F 29.35 in WNW 12.0 mph 20.0 mph 80 % 0.00 in 179 W/m2
09:51 55.0 °F 49.0 °F 29.36 in WNW 13.0 mph 25.0 mph 80 % 0.00 in 127 W/m2
09:56 54.7 °F 49.3 °F 29.36 in WNW 13.0 mph 29.0 mph 82 % 0.00 in 114 W/m2
10:01 54.0 °F 48.9 °F 29.36 in WNW 14.0 mph 29.0 mph 83 % 0.00 in 100 W/m2
10:06 53.4 °F 49.0 °F 29.37 in WNW 12.0 mph 22.0 mph 85 % 0.00 in 214 W/m2
10:11 53.4 °F 49.6 °F 29.37 in WNW 9.0 mph 18.0 mph 87 % 0.00 in 148 W/m2
10:16 53.8 °F 49.7 °F 29.37 in WNW 9.0 mph 20.0 mph 86 % 0.00 in 111 W/m2
10:21 54.1 °F 49.7 °F 29.37 in WNW 11.0 mph 27.0 mph 85 % 0.00 in 548 W/m2
10:26 54.7 °F 49.9 °F 29.38 in WNW 11.0 mph 27.0 mph 84 % 0.00 in 496 W/m2
10:31 55.0 °F 50.0 °F 29.38 in West 11.0 mph 25.0 mph 83 % 0.00 in 385 W/m2
10:36 55.9 °F 49.9 °F 29.39 in West 11.0 mph 25.0 mph 80 % 0.00 in 202 W/m2
10:42 56.1 °F 49.7 °F 29.39 in West 11.0 mph 20.0 mph 79 % 0.00 in 309 W/m2
10:47 56.3 °F 49.2 °F 29.39 in West 12.0 mph 24.0 mph 77 % 0.00 in 650 W/m2
10:52 56.7 °F 48.8 °F 29.39 in West 13.0 mph 28.0 mph 75 % 0.00 in 666 W/m2
10:57 56.8 °F 48.3 °F 29.39 in West 14.0 mph 28.0 mph 73 % 0.00 in 643 W/m2
11:02 57.4 °F 48.8 °F 29.39 in WNW 15.0 mph 25.0 mph 73 % 0.00 in 726 W/m2
11:07 57.7 °F 48.4 °F 29.39 in WNW 14.0 mph 30.0 mph 71 % 0.00 in 339 W/m2
11:12 57.7 °F 48.8 °F 29.40 in WNW 13.0 mph 30.0 mph 72 % 0.00 in 176 W/m2
11:17 57.0 °F 49.5 °F 29.40 in WNW 12.0 mph 20.0 mph 76 % 0.00 in 116 W/m2
11:22 55.8 °F 49.0 °F 29.40 in WNW 13.0 mph 23.0 mph 78 % 0.01 in 287 W/m2
11:27 55.2 °F 48.5 °F 29.40 in WNW 13.0 mph 23.0 mph 78 % 0.01 in 179 W/m2
11:32 55.2 °F 48.8 °F 29.40 in West 12.0 mph 23.0 mph 79 % 0.01 in 120 W/m2
11:37 54.9 °F 47.8 °F 29.40 in West 13.0 mph 26.0 mph 77 % 0.01 in 148 W/m2
11:42 54.5 °F 47.8 °F 29.40 in West 15.0 mph 26.0 mph 78 % 0.01 in 141 W/m2
11:47 54.5 °F 48.1 °F 29.41 in West 14.0 mph 25.0 mph 79 % 0.01 in 211 W/m2
11:52 54.5 °F 47.8 °F 29.41 in West 12.0 mph 23.0 mph 78 % 0.01 in 230 W/m2
11:57 54.7 °F 48.0 °F 29.40 in West 12.0 mph 23.0 mph 78 % 0.01 in 125 W/m2
12:02 54.7 °F 47.6 °F 29.41 in West 12.0 mph 20.0 mph 77 % 0.01 in 162 W/m2
12:07 54.7 °F 48.3 °F 29.41 in West 11.0 mph 19.0 mph 79 % 0.01 in 745 W/m2
12:12 55.4 °F 49.0 °F 29.41 in West 12.0 mph 21.0 mph 79 % 0.01 in 798 W/m2
12:17 56.1 °F 49.0 °F 29.41 in West 13.0 mph 21.0 mph 77 % 0.01 in 819 W/m2
12:22 57.0 °F 49.2 °F 29.41 in West 14.0 mph 28.0 mph 75 % 0.00 in 724 W/m2
12:27 57.4 °F 48.1 °F 29.41 in West 16.0 mph 28.0 mph 71 % 0.00 in 207 W/m2
12:32 57.2 °F 47.5 °F 29.42 in West 18.0 mph 34.0 mph 70 % 0.00 in 766 W/m2
12:37 57.4 °F 48.4 °F 29.42 in West 18.0 mph 34.0 mph 72 % 0.00 in 875 W/m2
12:42 57.6 °F 48.6 °F 29.42 in West 16.0 mph 26.0 mph 72 % 0.00 in 207 W/m2
12:47 56.8 °F 48.6 °F 29.43 in West 14.0 mph 26.0 mph 74 % 0.00 in 188 W/m2
12:52 56.1 °F 47.9 °F 29.42 in West 14.0 mph 26.0 mph 74 % 0.00 in 209 W/m2
12:57 55.4 °F 48.3 °F 29.42 in West 14.0 mph 23.0 mph 77 % 0.00 in 784 W/m2
13:02 55.8 °F 49.3 °F 29.42 in West 12.0 mph 21.0 mph 79 % 0.00 in 729 W/m2
13:07 56.7 °F 49.5 °F 29.42 in West 12.0 mph 20.0 mph 77 % 0.00 in 749 W/m2
13:12 57.6 °F 50.0 °F 29.42 in West 13.0 mph 22.0 mph 76 % 0.00 in 814 W/m2
13:17 57.9 °F 49.3 °F 29.43 in West 15.0 mph 25.0 mph 73 % 0.00 in 814 W/m2
13:22 58.5 °F 49.5 °F 29.43 in West 15.0 mph 25.0 mph 72 % 0.00 in 763 W/m2
13:27 58.5 °F 48.7 °F 29.43 in West 15.0 mph 27.0 mph 70 % 0.00 in 174 W/m2
13:32 57.9 °F 49.3 °F 29.43 in West 16.0 mph 27.0 mph 73 % 0.00 in 780 W/m2
13:38 57.9 °F 48.6 °F 29.43 in West 16.0 mph 27.0 mph 71 % 0.00 in 288 W/m2
13:43 57.4 °F 48.4 °F 29.43 in West 15.0 mph 27.0 mph 72 % 0.00 in 302 W/m2
13:48 56.8 °F 48.3 °F 29.43 in West 13.0 mph 23.0 mph 73 % 0.00 in 148 W/m2
13:53 56.1 °F 47.9 °F 29.43 in WSW 12.0 mph 26.0 mph 74 % 0.00 in 160 W/m2
13:58 55.6 °F 47.8 °F 29.43 in WSW 13.0 mph 26.0 mph 75 % 0.00 in 142 W/m2
14:03 55.0 °F 47.3 °F 29.43 in WSW 13.0 mph 23.0 mph 75 % 0.00 in 146 W/m2
14:08 54.9 °F 47.4 °F 29.44 in West 13.0 mph 23.0 mph 76 % 0.00 in 229 W/m2
14:13 55.0 °F 48.3 °F 29.44 in West 12.0 mph 22.0 mph 78 % 0.00 in 287 W/m2
14:18 56.1 °F 49.0 °F 29.43 in West 11.0 mph 23.0 mph 77 % 0.00 in 740 W/m2
14:23 56.7 °F 48.8 °F 29.43 in WSW 11.0 mph 23.0 mph 75 % 0.00 in 759 W/m2
14:28 57.4 °F 49.5 °F 29.43 in WSW 11.0 mph 18.0 mph 75 % 0.00 in 694 W/m2
14:33 58.3 °F 49.3 °F 29.43 in WSW 12.0 mph 21.0 mph 72 % 0.00 in 570 W/m2
14:38 58.8 °F 49.4 °F 29.43 in West 13.0 mph 21.0 mph 71 % 0.00 in 696 W/m2
14:43 59.2 °F 49.8 °F 29.43 in WSW 14.0 mph 23.0 mph 71 % 0.00 in 786 W/m2
14:48 59.4 °F 49.2 °F 29.43 in WSW 15.0 mph 26.0 mph 69 % 0.00 in 325 W/m2
14:53 59.4 °F 51.1 °F 29.44 in WSW 14.0 mph 26.0 mph 74 % 0.00 in 165 W/m2
14:58 58.1 °F 49.9 °F 29.44 in West 13.0 mph 25.0 mph 74 % 0.00 in 146 W/m2
15:03 56.8 °F 49.7 °F 29.44 in West 11.0 mph 22.0 mph 77 % 0.00 in 109 W/m2
15:08 55.9 °F 49.5 °F 29.43 in West 10.0 mph 18.0 mph 79 % 0.00 in 167 W/m2
15:13 55.9 °F 50.2 °F 29.43 in West 10.0 mph 20.0 mph 81 % 0.00 in 148 W/m2
15:18 55.9 °F 49.9 °F 29.43 in WNW 11.0 mph 20.0 mph 80 % 0.00 in 596 W/m2
15:25 56.8 °F 50.0 °F 29.43 in WSW 11.0 mph 11.0 mph 78 % 0.00 in 552 W/m2
15:30 57.2 °F 48.6 °F 29.43 in West 18.0 mph 25.0 mph 73 % 0.00 in 548 W/m2
15:35 57.7 °F 48.8 °F 29.43 in West 14.0 mph 25.0 mph 72 % 0.00 in 564 W/m2
15:40 58.3 °F 48.5 °F 29.43 in WNW 12.0 mph 21.0 mph 70 % 0.00 in 568 W/m2
15:45 58.8 °F 48.3 °F 29.43 in West 13.0 mph 21.0 mph 68 % 0.00 in 533 W/m2
15:50 59.2 °F 47.8 °F 29.43 in West 13.0 mph 22.0 mph 66 % 0.00 in 139 W/m2
15:55 58.6 °F 46.5 °F 29.44 in WNW 15.0 mph 26.0 mph 64 % 0.00 in 142 W/m2
16:00 58.6 °F 47.3 °F 29.43 in WNW 13.0 mph 26.0 mph 66 % 0.00 in 580 W/m2
16:05 59.0 °F 47.7 °F 29.43 in WNW 11.0 mph 21.0 mph 66 % 0.00 in 214 W/m2
16:10 58.5 °F 47.5 °F 29.43 in WNW 10.0 mph 21.0 mph 67 % 0.00 in 130 W/m2
16:15 57.7 °F 47.6 °F 29.44 in WNW 10.0 mph 21.0 mph 69 % 0.00 in 200 W/m2
16:20 57.6 °F 47.5 °F 29.44 in West 9.0 mph 18.0 mph 69 % 0.00 in 473 W/m2
16:25 57.9 °F 47.4 °F 29.44 in West 10.0 mph 18.0 mph 68 % 0.00 in 431 W/m2
16:30 58.3 °F 48.2 °F 29.44 in West 10.0 mph 16.0 mph 69 % 0.00 in 417 W/m2
16:35 58.5 °F 47.9 °F 29.43 in West 10.0 mph 20.0 mph 68 % 0.00 in 104 W/m2
16:40 58.1 °F 47.2 °F 29.43 in West 14.0 mph 25.0 mph 67 % 0.00 in 422 W/m2
16:45 58.3 °F 47.4 °F 29.43 in West 14.0 mph 25.0 mph 67 % 0.00 in 272 W/m2
16:50 58.3 °F 47.0 °F 29.43 in West 13.0 mph 21.0 mph 66 % 0.00 in 378 W/m2
16:55 58.3 °F 47.8 °F 29.43 in West 13.0 mph 29.0 mph 68 % 0.00 in 346 W/m2
17:00 58.6 °F 48.5 °F 29.43 in West 11.0 mph 29.0 mph 69 % 0.00 in 330 W/m2
17:05 58.6 °F 48.1 °F 29.43 in West 10.0 mph 19.0 mph 68 % 0.00 in 316 W/m2
17:10 58.5 °F 47.5 °F 29.43 in West 12.0 mph 26.0 mph 67 % 0.00 in 309 W/m2
17:15 58.3 °F 47.0 °F 29.44 in West 14.0 mph 26.0 mph 66 % 0.00 in 297 W/m2
17:20 58.3 °F 47.0 °F 29.43 in West 12.0 mph 22.0 mph 66 % 0.00 in 193 W/m2
17:25 57.7 °F 46.5 °F 29.43 in WNW 12.0 mph 24.0 mph 66 % 0.00 in 265 W/m2
17:31 57.7 °F 46.9 °F 29.43 in WNW 11.0 mph 24.0 mph 67 % 0.00 in 239 W/m2
17:36 57.7 °F 46.9 °F 29.43 in WNW 11.0 mph 22.0 mph 67 % 0.00 in 244 W/m2
17:41 57.7 °F 46.5 °F 29.44 in WNW 12.0 mph 22.0 mph 66 % 0.00 in 213 W/m2
17:46 57.6 °F 47.1 °F 29.43 in WNW 11.0 mph 22.0 mph 68 % 0.00 in 225 W/m2
17:51 57.4 °F 47.3 °F 29.43 in WNW 9.0 mph 18.0 mph 69 % 0.00 in 207 W/m2
17:56 57.2 °F 47.5 °F 29.43 in WNW 10.0 mph 19.0 mph 70 % 0.00 in 178 W/m2
18:01 56.8 °F 47.5 °F 29.43 in West 10.0 mph 20.0 mph 71 % 0.00 in 167 W/m2
18:06 56.8 °F 47.5 °F 29.43 in West 12.0 mph 21.0 mph 71 % 0.00 in 158 W/m2
18:11 56.7 °F 47.4 °F 29.44 in West 12.0 mph 21.0 mph 71 % 0.00 in 142 W/m2
18:16 56.5 °F 47.2 °F 29.43 in West 10.0 mph 20.0 mph 71 % 0.00 in 125 W/m2
18:21 56.3 °F 47.0 °F 29.43 in WNW 11.0 mph 21.0 mph 71 % 0.00 in 107 W/m2
18:26 56.1 °F 47.2 °F 29.43 in WNW 11.0 mph 21.0 mph 72 % 0.00 in 97 W/m2
18:31 55.9 °F 47.0 °F 29.44 in WNW 10.0 mph 19.0 mph 72 % 0.00 in 83 W/m2
18:36 55.8 °F 46.9 °F 29.43 in WNW 11.0 mph 19.0 mph 72 % 0.00 in 35 W/m2
18:41 55.4 °F 46.9 °F 29.43 in WNW 9.0 mph 15.0 mph 73 % 0.00 in 58 W/m2
18:46 55.2 °F 46.7 °F 29.43 in West 9.0 mph 18.0 mph 73 % 0.00 in 44 W/m2
18:56 54.7 °F 46.6 °F 29.43 in West 9.0 mph 15.0 mph 74 % 0.00 in 14 W/m2
19:01 54.3 °F 46.6 °F 29.43 in West 7.0 mph 13.0 mph 75 % 0.00 in 12 W/m2
19:06 54.0 °F 46.6 °F 29.44 in West 7.0 mph 13.0 mph 76 % 0.00 in 11 W/m2
19:11 53.8 °F 46.4 °F 29.43 in West 7.0 mph 13.0 mph 76 % 0.00 in 9 W/m2
19:16 53.4 °F 46.4 °F 29.44 in West 7.0 mph 14.0 mph 77 % 0.00 in 7 W/m2
19:21 53.2 °F 46.6 °F 29.44 in West 6.0 mph 14.0 mph 78 % 0.00 in 5 W/m2
19:26 53.1 °F 46.4 °F 29.44 in West 5.0 mph 9.0 mph 78 % 0.00 in 0 W/m2
19:31 52.9 °F 46.5 °F 29.44 in West 4.0 mph 7.0 mph 79 % 0.00 in 0 W/m2
19:36 52.5 °F 46.2 °F 29.45 in West 3.0 mph 6.0 mph 79 % 0.00 in 0 W/m2
19:41 52.5 °F 46.5 °F 29.45 in West 4.0 mph 11.0 mph 80 % 0.00 in 0 W/m2
19:46 52.5 °F 46.5 °F 29.45 in West 6.0 mph 12.0 mph 80 % 0.00 in 0 W/m2
19:51 52.5 °F 46.5 °F 29.45 in West 7.0 mph 14.0 mph 80 % 0.00 in 0 W/m2
19:56 52.5 °F 46.2 °F 29.46 in West 7.0 mph 14.0 mph 79 % 0.00 in 0 W/m2
20:01 52.3 °F 46.0 °F 29.46 in West 7.0 mph 12.0 mph 79 % 0.00 in 0 W/m2
20:06 52.2 °F 45.8 °F 29.46 in West 7.0 mph 12.0 mph 79 % 0.00 in 0 W/m2
20:12 52.0 °F 45.7 °F 29.46 in West 7.0 mph 12.0 mph 79 % 0.00 in 0 W/m2
20:17 51.8 °F 45.8 °F 29.46 in West 7.0 mph 12.0 mph 80 % 0.00 in 0 W/m2
20:22 51.6 °F 45.7 °F 29.47 in West 8.0 mph 16.0 mph 80 % 0.00 in 0 W/m2
20:27 51.6 °F 45.7 °F 29.47 in West 7.0 mph 16.0 mph 80 % 0.00 in 0 W/m2
20:32 51.4 °F 45.5 °F 29.47 in West 5.0 mph 11.0 mph 80 % 0.00 in 0 W/m2
20:37 51.1 °F 45.1 °F 29.47 in West 4.0 mph 9.0 mph 80 % 0.00 in 0 W/m2
20:42 50.9 °F 44.9 °F 29.47 in WNW 4.0 mph 8.0 mph 80 % 0.00 in 0 W/m2
20:47 50.5 °F 44.9 °F 29.47 in West 4.0 mph 11.0 mph 81 % 0.00 in 0 W/m2
20:52 50.5 °F 44.9 °F 29.47 in West 5.0 mph 11.0 mph 81 % 0.00 in 0 W/m2
20:57 50.4 °F 44.7 °F 29.48 in West 5.0 mph 12.0 mph 81 % 0.00 in 0 W/m2
21:02 50.2 °F 44.9 °F 29.48 in West 7.0 mph 12.0 mph 82 % 0.00 in 0 W/m2
21:07 50.0 °F 44.7 °F 29.48 in West 6.0 mph 12.0 mph 82 % 0.00 in 0 W/m2
21:12 49.8 °F 44.9 °F 29.47 in West 5.0 mph 9.0 mph 83 % 0.00 in 0 W/m2
21:17 49.8 °F 44.9 °F 29.48 in West 4.0 mph 8.0 mph 83 % 0.00 in 0 W/m2
21:22 49.6 °F 45.0 °F 29.48 in WNW 3.0 mph 8.0 mph 84 % 0.00 in 0 W/m2
21:27 49.5 °F 44.8 °F 29.48 in WNW 3.0 mph 7.0 mph 84 % 0.00 in 0 W/m2
21:32 49.5 °F 44.8 °F 29.48 in WNW 3.0 mph 7.0 mph 84 % 0.00 in 0 W/m2
21:37 49.3 °F 45.0 °F 29.48 in WNW 3.0 mph 6.0 mph 85 % 0.00 in 0 W/m2
21:42 49.1 °F 44.8 °F 29.48 in WNW 2.0 mph 6.0 mph 85 % 0.00 in 0 W/m2
21:47 48.9 °F 44.6 °F 29.48 in West 1.0 mph 6.0 mph 85 % 0.00 in 0 W/m2
21:52 48.7 °F 44.7 °F 29.48 in WSW 1.0 mph 6.0 mph 86 % 0.00 in 0 W/m2
21:57 48.6 °F 44.6 °F 29.48 in WSW 1.0 mph 5.0 mph 86 % 0.00 in 0 W/m2
22:02 48.4 °F 44.4 °F 29.48 in WSW 1.0 mph 5.0 mph 86 % 0.00 in 0 W/m2
22:07 48.2 °F 44.5 °F 29.48 in WSW 1.0 mph 5.0 mph 87 % 0.00 in 0 W/m2
22:12 48.0 °F 44.3 °F 29.48 in WSW 1.0 mph 5.0 mph 87 % 0.00 in 0 W/m2
22:17 48.0 °F 44.3 °F 29.48 in West 1.0 mph 7.0 mph 87 % 0.00 in 0 W/m2
22:22 47.8 °F 44.5 °F 29.48 in West 2.0 mph 7.0 mph 88 % 0.00 in 0 W/m2
22:27 48.0 °F 44.6 °F 29.48 in West 4.0 mph 10.0 mph 88 % 0.00 in 0 W/m2
22:32 48.2 °F 44.8 °F 29.48 in West 5.0 mph 10.0 mph 88 % 0.00 in 0 W/m2
22:37 48.2 °F 44.8 °F 29.48 in West 5.0 mph 10.0 mph 88 % 0.00 in 0 W/m2
22:42 48.4 °F 45.0 °F 29.48 in West 6.0 mph 11.0 mph 88 % 0.00 in 0 W/m2
22:47 48.4 °F 45.3 °F 29.48 in West 6.0 mph 11.0 mph 89 % 0.00 in 0 W/m2
22:52 48.4 °F 45.0 °F 29.49 in West 5.0 mph 9.0 mph 88 % 0.00 in 0 W/m2
22:57 48.4 °F 45.0 °F 29.49 in West 4.0 mph 10.0 mph 88 % 0.00 in 0 W/m2
23:02 48.2 °F 44.8 °F 29.49 in WNW 4.0 mph 10.0 mph 88 % 0.00 in 0 W/m2
23:07 48.0 °F 44.6 °F 29.49 in WNW 4.0 mph 8.0 mph 88 % 0.00 in 0 W/m2
23:12 47.8 °F 44.5 °F 29.49 in WNW 5.0 mph 8.0 mph 88 % 0.00 in 0 W/m2
23:17 47.8 °F 44.5 °F 29.49 in WNW 5.0 mph 8.0 mph 88 % 0.00 in 0 W/m2
23:22 47.7 °F 44.3 °F 29.49 in WNW 5.0 mph 9.0 mph 88 % 0.00 in 0 W/m2
23:27 47.7 °F 44.3 °F 29.49 in WNW 4.0 mph 9.0 mph 88 % 0.00 in 0 W/m2
23:32 47.5 °F 44.1 °F 29.49 in WNW 4.0 mph 8.0 mph 88 % 0.00 in 0 W/m2
23:37 47.5 °F 44.4 °F 29.49 in WNW 5.0 mph 9.0 mph 89 % 0.00 in 0 W/m2
23:42 47.5 °F 44.4 °F 29.49 in WNW 5.0 mph 9.0 mph 89 % 0.00 in 0 W/m2
23:45 47.5 °F 44.4 °F 29.49 in WNW 5.0 mph 9.0 mph 89 % 0.00 in 0 W/m2
23:50 47.5 °F 44.4 °F 29.49 in WNW 4.0 mph 8.0 mph 89 % 0.00 in 0 W/m2
23:55 47.3 °F 44.2 °F 29.50 in WNW 3.0 mph 7.0 mph 89 % 0.00 in 0 W/m2
Delerius-Weather
Compliments of Weather Underground - 2.25 mb

Data updates at regular intervals.